createdAt,value
2022-10-07T00:00:58.500Z,16.67
2022-10-07T00:03:26.874Z,15.43
2022-10-07T00:06:01.479Z,15.88
2022-10-07T00:08:29.282Z,14.52
2022-10-07T00:10:56.920Z,13.80
2022-10-07T00:13:27.070Z,17.80
2022-10-07T00:16:03.494Z,15.20
2022-10-07T00:18:31.382Z,13.85
2022-10-07T00:21:13.884Z,12.88
2022-10-07T00:23:44.809Z,16.15
2022-10-07T00:26:14.318Z,17.98
2022-10-07T00:28:44.128Z,16.75
2022-10-07T00:31:22.823Z,16.83
2022-10-07T00:33:50.780Z,14.02
2022-10-07T00:36:20.859Z,15.25
2022-10-07T00:38:56.865Z,16.95
2022-10-07T00:41:26.732Z,72.95
2022-10-07T00:43:54.400Z,113.10
2022-10-07T00:46:27.225Z,39.83
2022-10-07T00:49:01.079Z,41.75
2022-10-07T00:51:29.255Z,25.27
2022-10-07T00:53:56.801Z,16.52
2022-10-07T00:56:24.721Z,17.83
2022-10-07T00:58:52.301Z,15.63
2022-10-07T01:01:20.649Z,15.68
2022-10-07T01:03:48.603Z,18.60
2022-10-07T01:06:16.285Z,15.75
2022-10-07T01:08:44.813Z,19.75
2022-10-07T01:11:31.188Z,21.52
2022-10-07T01:14:24.859Z,16.98
2022-10-07T01:17:11.382Z,23.52
2022-10-07T01:20:09.706Z,17.30
2022-10-07T01:22:44.624Z,15.73
2022-10-07T01:25:29.866Z,14.40
2022-10-07T01:28:20.004Z,18.15
2022-10-07T01:30:50.467Z,22.05
2022-10-07T01:33:19.573Z,21.35
2022-10-07T01:35:48.776Z,16.70
2022-10-07T01:38:23.076Z,20.73
2022-10-07T01:40:55.315Z,23.70
2022-10-07T01:43:24.518Z,22.65
2022-10-07T01:45:52.764Z,25.27
2022-10-07T01:48:20.528Z,20.25
2022-10-07T01:50:48.569Z,23.13
2022-10-07T01:53:35.005Z,25.15
2022-10-07T01:56:10.661Z,20.65
2022-10-07T01:58:44.714Z,23.15
2022-10-07T02:01:38.413Z,28.05
2022-10-07T02:04:11.175Z,24.63
2022-10-07T02:07:05.092Z,23.52
2022-10-07T02:10:01.234Z,40.78
2022-10-07T02:12:46.617Z,22.48
2022-10-07T02:15:17.722Z,30.10
2022-10-07T02:17:49.956Z,22.38
2022-10-07T02:20:17.766Z,20.15
2022-10-07T02:22:45.857Z,21.40
2022-10-07T02:25:14.408Z,25.88
2022-10-07T02:27:43.320Z,21.35
2022-10-07T02:30:15.523Z,23.13
2022-10-07T02:32:47.845Z,21.40
2022-10-07T02:35:21.264Z,25.65
2022-10-07T02:37:49.124Z,23.05
2022-10-07T02:40:16.947Z,18.15
2022-10-07T02:42:51.944Z,20.75
2022-10-07T02:45:29.653Z,22.83
2022-10-07T02:48:23.744Z,25.92
2022-10-07T02:50:53.798Z,25.95
2022-10-07T02:53:21.546Z,25.10
2022-10-07T02:55:49.385Z,24.10
2022-10-07T02:58:16.919Z,26.90
2022-10-07T03:00:47.569Z,18.40
2022-10-07T03:03:16.481Z,27.02
2022-10-07T03:05:58.989Z,24.88
2022-10-07T03:08:28.450Z,22.05
2022-10-07T03:10:57.135Z,23.10
2022-10-07T03:13:26.645Z,25.95
2022-10-07T03:15:58.959Z,21.75
2022-10-07T03:18:28.692Z,26.58
2022-10-07T03:21:16.505Z,23.73
2022-10-07T03:23:44.964Z,19.73
2022-10-07T03:26:13.592Z,20.15
2022-10-07T03:28:41.628Z,23.67
2022-10-07T03:31:11.998Z,22.00
2022-10-07T03:33:44.704Z,24.98
2022-10-07T03:36:13.465Z,25.90
2022-10-07T03:38:43.814Z,35.55
2022-10-07T03:41:12.881Z,26.85
2022-10-07T03:43:42.612Z,28.38
2022-10-07T03:46:11.933Z,33.38
2022-10-07T03:48:40.928Z,27.02
2022-10-07T03:51:09.115Z,29.10
2022-10-07T03:53:38.917Z,28.05
2022-10-07T03:56:07.610Z,29.27
2022-10-07T03:58:36.848Z,31.23
2022-10-07T04:01:07.496Z,30.63
2022-10-07T04:03:38.452Z,31.67
2022-10-07T04:06:07.139Z,39.60
2022-10-07T04:08:36.108Z,30.33
2022-10-07T04:11:05.263Z,29.05
2022-10-07T04:13:34.277Z,32.33
2022-10-07T04:16:09.449Z,25.75
2022-10-07T04:18:37.749Z,31.95
2022-10-07T04:21:06.339Z,30.75
2022-10-07T04:23:36.224Z,29.63
2022-10-07T04:26:12.077Z,29.85
2022-10-07T04:28:43.872Z,29.73
2022-10-07T04:31:14.473Z,29.50
2022-10-07T04:33:46.541Z,28.08
2022-10-07T04:36:20.301Z,26.90
2022-10-07T04:38:53.310Z,25.35
2022-10-07T04:41:26.151Z,24.52
2022-10-07T04:43:57.567Z,23.50
2022-10-07T04:46:30.205Z,28.58
2022-10-07T04:49:03.990Z,25.40
2022-10-07T04:51:32.054Z,25.50
2022-10-07T04:54:01.493Z,23.27
2022-10-07T04:56:52.359Z,22.42
2022-10-07T04:59:25.456Z,23.95
2022-10-07T05:01:56.820Z,25.25
2022-10-07T05:04:25.072Z,19.80
2022-10-07T05:06:54.280Z,28.15
2022-10-07T05:09:22.219Z,24.65
2022-10-07T05:11:55.773Z,23.05
2022-10-07T05:14:24.234Z,21.92
2022-10-07T05:16:54.207Z,21.20
2022-10-07T05:19:28.901Z,20.42
2022-10-07T05:21:56.695Z,19.63
2022-10-07T05:24:26.555Z,20.70
2022-10-07T05:26:54.877Z,21.13
2022-10-07T05:29:22.709Z,23.85
2022-10-07T05:31:52.910Z,22.40
2022-10-07T05:34:24.079Z,20.77
2022-10-07T05:36:53.782Z,17.40
2022-10-07T05:39:22.639Z,21.52
2022-10-07T05:41:53.728Z,18.00
2022-10-07T05:44:26.601Z,18.73
2022-10-07T05:46:57.314Z,20.50
2022-10-07T05:49:25.262Z,18.45
2022-10-07T05:51:52.896Z,22.83
2022-10-07T05:54:21.026Z,22.42
2022-10-07T05:56:48.867Z,19.10
2022-10-07T05:59:19.176Z,22.40
2022-10-07T06:01:47.226Z,21.20
2022-10-07T06:04:20.114Z,19.58
2022-10-07T06:06:49.500Z,19.92
2022-10-07T06:09:39.071Z,23.92
2022-10-07T06:12:31.500Z,21.58
2022-10-07T06:15:02.200Z,23.20
2022-10-07T06:17:30.368Z,20.83
2022-10-07T06:20:02.880Z,20.55
2022-10-07T06:22:32.158Z,22.80
2022-10-07T06:25:02.559Z,19.02
2022-10-07T06:27:32.972Z,21.48
2022-10-07T06:30:00.594Z,17.45
2022-10-07T06:32:32.803Z,18.70
2022-10-07T06:35:01.401Z,16.10
2022-10-07T06:37:32.425Z,15.65
2022-10-07T06:40:00.375Z,23.20
2022-10-07T06:42:31.733Z,13.88
2022-10-07T06:45:19.298Z,18.63
2022-10-07T06:47:50.019Z,15.40
2022-10-07T06:50:17.993Z,16.10
2022-10-07T06:52:45.627Z,18.17
2022-10-07T06:55:13.704Z,17.05
2022-10-07T06:57:45.789Z,14.77
2022-10-07T07:00:15.938Z,14.40
2022-10-07T07:02:45.014Z,13.23
2022-10-07T07:05:16.238Z,13.38
2022-10-07T07:07:46.465Z,15.57
2022-10-07T07:10:15.259Z,13.35
2022-10-07T07:12:49.018Z,11.80
2022-10-07T07:15:17.623Z,16.20
2022-10-07T07:17:45.367Z,11.65
2022-10-07T07:20:14.814Z,14.45
2022-10-07T07:22:44.336Z,12.40
2022-10-07T07:25:12.269Z,13.35
2022-10-07T07:27:40.306Z,12.88
2022-10-07T07:30:10.421Z,14.52
2022-10-07T07:32:38.264Z,12.70
2022-10-07T07:35:07.025Z,15.20
2022-10-07T07:37:34.633Z,16.27
2022-10-07T07:40:03.146Z,12.18
2022-10-07T07:42:32.865Z,15.63
2022-10-07T07:45:00.933Z,13.55
2022-10-07T07:47:28.556Z,9.88
2022-10-07T07:49:56.827Z,14.80
2022-10-07T07:52:31.973Z,11.93
2022-10-07T07:55:03.295Z,10.02
2022-10-07T07:57:31.700Z,12.70
2022-10-07T08:00:05.529Z,13.45
2022-10-07T08:02:42.424Z,14.38
2022-10-07T08:05:14.928Z,11.60
2022-10-07T08:07:42.690Z,12.98
2022-10-07T08:10:13.158Z,13.17
2022-10-07T08:12:41.184Z,12.15
2022-10-07T08:15:10.936Z,15.05
2022-10-07T08:17:41.318Z,12.90
2022-10-07T08:20:10.925Z,11.80
2022-10-07T08:22:45.986Z,10.88
2022-10-07T08:25:15.361Z,19.35
2022-10-07T08:27:44.576Z,13.52
2022-10-07T08:30:13.449Z,14.40
2022-10-07T08:32:41.406Z,12.27
2022-10-07T08:35:09.602Z,14.55
2022-10-07T08:37:37.314Z,11.57
2022-10-07T08:40:05.742Z,11.27
2022-10-07T08:42:35.389Z,9.35
2022-10-07T08:45:03.263Z,9.07
2022-10-07T08:47:45.600Z,11.55
2022-10-07T08:50:20.170Z,9.85
2022-10-07T08:53:03.226Z,9.55
2022-10-07T08:55:39.716Z,12.77
2022-10-07T08:58:32.183Z,11.00
2022-10-07T09:01:15.637Z,9.48
2022-10-07T09:04:06.355Z,9.50
2022-10-07T09:07:10.105Z,10.57
2022-10-07T09:09:56.148Z,10.77
2022-10-07T09:12:49.768Z,9.48
2022-10-07T09:15:32.892Z,8.32
2022-10-07T09:18:03.861Z,10.95
2022-10-07T09:20:35.155Z,10.07
2022-10-07T09:23:04.794Z,9.65
2022-10-07T09:25:34.219Z,8.50
2022-10-07T09:28:01.906Z,8.80
2022-10-07T09:30:29.758Z,7.95
2022-10-07T09:32:57.402Z,9.85
2022-10-07T09:35:27.105Z,8.07
2022-10-07T09:37:55.826Z,7.45
2022-10-07T09:40:33.808Z,9.40
2022-10-07T09:43:01.514Z,8.02
2022-10-07T09:45:33.022Z,9.15
2022-10-07T09:50:38.409Z,9.65
2022-10-07T09:53:16.455Z,16.30
2022-10-07T09:55:44.142Z,8.35
2022-10-07T09:58:21.533Z,8.30
2022-10-07T10:00:50.421Z,6.85
2022-10-07T10:03:18.657Z,7.78
2022-10-07T10:06:00.488Z,8.63
2022-10-07T10:08:43.920Z,7.70
2022-10-07T10:11:20.896Z,7.35
2022-10-07T10:13:49.587Z,7.53
2022-10-07T10:16:37.653Z,7.00
2022-10-07T10:19:27.199Z,6.13
2022-10-07T10:21:59.497Z,9.88
2022-10-07T10:24:47.708Z,7.53
2022-10-07T10:27:21.419Z,6.10
2022-10-07T10:30:22.001Z,6.60
2022-10-07T10:32:53.634Z,7.78
2022-10-07T10:35:53.810Z,6.80
2022-10-07T10:38:26.933Z,6.40
2022-10-07T10:40:59.392Z,9.30
2022-10-07T10:44:00.627Z,9.57
2022-10-07T10:46:52.583Z,9.85
2022-10-07T10:49:29.222Z,6.30
2022-10-07T10:52:20.517Z,5.55
2022-10-07T10:58:08.067Z,5.05
2022-10-07T11:00:45.413Z,8.43
2022-10-07T11:03:41.666Z,11.85
2022-10-07T11:06:11.044Z,9.35
2022-10-07T11:08:39.066Z,5.85
2022-10-07T11:11:07.478Z,6.80
2022-10-07T11:13:37.711Z,7.18
2022-10-07T11:16:10.057Z,6.90
2022-10-07T11:19:05.341Z,8.80
2022-10-07T11:21:45.055Z,5.88
2022-10-07T11:24:34.574Z,3.83
2022-10-07T11:27:26.140Z,4.28
2022-10-07T11:29:56.735Z,4.35
2022-10-07T11:32:46.233Z,5.37
2022-10-07T11:35:22.249Z,7.05
2022-10-07T11:38:09.959Z,5.18
2022-10-07T11:41:08.641Z,4.88
2022-10-07T11:43:45.423Z,7.30
2022-10-07T11:46:33.219Z,8.13
2022-10-07T11:49:23.702Z,6.10
2022-10-07T11:52:12.106Z,4.28
2022-10-07T11:54:42.789Z,5.28
2022-10-07T11:57:22.505Z,4.68
2022-10-07T12:00:01.723Z,6.30
2022-10-07T12:02:29.764Z,7.43
2022-10-07T12:05:01.403Z,6.15
2022-10-07T12:08:02.405Z,5.35
2022-10-07T12:10:32.028Z,5.53
2022-10-07T12:13:11.147Z,4.50
2022-10-07T12:15:42.369Z,4.90
2022-10-07T12:18:20.153Z,3.63
2022-10-07T12:20:50.608Z,7.38
2022-10-07T12:23:20.892Z,8.80
2022-10-07T12:25:53.567Z,4.47
2022-10-07T12:28:24.454Z,5.20
2022-10-07T12:30:53.636Z,7.90
2022-10-07T12:33:43.412Z,6.38
2022-10-07T12:36:22.896Z,8.18
2022-10-07T12:38:57.601Z,6.03
2022-10-07T12:41:25.812Z,5.97
2022-10-07T12:43:59.204Z,7.13
2022-10-07T12:46:29.699Z,5.07
2022-10-07T12:49:14.147Z,8.25
2022-10-07T12:51:41.703Z,6.55
2022-10-07T12:54:20.208Z,4.93
2022-10-07T12:56:49.920Z,5.20
2022-10-07T12:59:47.892Z,3.47
2022-10-07T13:02:36.426Z,4.50
2022-10-07T13:05:10.091Z,4.25
2022-10-07T13:07:50.032Z,4.45
2022-10-07T13:10:35.734Z,4.13
2022-10-07T13:13:07.749Z,4.15
2022-10-07T13:15:47.897Z,5.72
2022-10-07T13:18:20.114Z,3.50
2022-10-07T13:20:54.501Z,6.38
2022-10-07T13:23:26.960Z,5.40
2022-10-07T13:25:56.336Z,4.60
2022-10-07T13:28:25.416Z,3.00
2022-10-07T13:30:53.416Z,4.45
2022-10-07T13:33:31.764Z,4.90
2022-10-07T13:36:11.658Z,3.50
2022-10-07T13:38:40.118Z,3.72
2022-10-07T13:41:23.304Z,3.60
2022-10-07T13:43:54.834Z,6.28
2022-10-07T13:46:25.804Z,3.75
2022-10-07T13:48:56.421Z,8.70
2022-10-07T13:51:37.547Z,6.47
2022-10-07T13:54:06.623Z,4.57
2022-10-07T13:56:43.447Z,5.55
2022-10-07T13:59:18.155Z,2.95
2022-10-07T14:01:56.841Z,6.72
2022-10-07T14:04:34.481Z,4.55
2022-10-07T14:07:13.126Z,4.80
2022-10-07T14:09:50.753Z,4.10
2022-10-07T14:12:25.009Z,6.05
2022-10-07T14:14:55.792Z,4.32
2022-10-07T14:17:32.738Z,7.38
2022-10-07T14:20:05.857Z,4.10
2022-10-07T14:22:38.720Z,4.47
2022-10-07T14:25:07.793Z,8.15
2022-10-07T14:27:39.791Z,8.10
2022-10-07T14:30:29.250Z,6.55
2022-10-07T14:33:27.938Z,4.57
2022-10-07T14:36:27.031Z,6.55
2022-10-07T14:38:58.303Z,8.25
2022-10-07T14:41:29.388Z,11.50
2022-10-07T14:44:00.474Z,7.05
2022-10-07T14:46:28.520Z,6.82
2022-10-07T14:48:56.543Z,7.28
2022-10-07T14:51:27.101Z,6.95
2022-10-07T14:54:06.013Z,6.03
2022-10-07T14:56:35.777Z,8.68
2022-10-07T14:59:03.295Z,5.38
2022-10-07T15:01:31.434Z,7.18
2022-10-07T15:03:59.132Z,6.25
2022-10-07T15:06:26.831Z,5.68
2022-10-07T15:08:56.939Z,9.77
2022-10-07T15:11:24.523Z,8.00
2022-10-07T15:13:52.087Z,8.38
2022-10-07T15:16:26.781Z,5.85
2022-10-07T15:18:54.701Z,8.85
2022-10-07T15:21:22.404Z,11.35
2022-10-07T15:23:53.592Z,9.75
2022-10-07T15:26:24.006Z,23.13
2022-10-07T15:28:56.532Z,12.53
2022-10-07T15:31:27.599Z,14.40
2022-10-07T15:33:58.122Z,23.50
2022-10-07T15:36:29.245Z,22.52
2022-10-07T15:38:59.045Z,20.55
2022-10-07T15:41:33.927Z,23.45
2022-10-07T15:44:04.632Z,11.93
2022-10-07T15:46:32.487Z,20.38
2022-10-07T15:49:00.372Z,28.52
2022-10-07T15:51:28.129Z,19.55
2022-10-07T15:53:55.713Z,15.15
2022-10-07T15:56:25.585Z,22.38
2022-10-07T15:58:54.709Z,32.47
2022-10-07T16:01:22.552Z,26.27
2022-10-07T16:03:50.221Z,16.40
2022-10-07T16:06:23.699Z,25.05
2022-10-07T16:08:52.200Z,29.27
2022-10-07T16:11:19.780Z,17.27
2022-10-07T16:13:48.318Z,21.15
2022-10-07T16:16:22.743Z,17.17
2022-10-07T16:18:51.359Z,23.55
2022-10-07T16:21:24.353Z,19.08
2022-10-07T16:23:54.899Z,19.33
2022-10-07T16:26:25.796Z,34.83
2022-10-07T16:29:12.383Z,104.68
2022-10-07T16:31:40.993Z,84.47
2022-10-07T16:34:09.950Z,118.40
2022-10-07T16:36:42.085Z,204.50
2022-10-07T16:39:12.570Z,59.53
2022-10-07T16:41:41.776Z,74.78
2022-10-07T16:44:13.138Z,57.83
2022-10-07T16:46:41.629Z,57.15
2022-10-07T16:49:12.527Z,65.10
2022-10-07T16:51:40.262Z,85.22
2022-10-07T16:54:13.838Z,70.75
2022-10-07T16:56:42.469Z,67.60
2022-10-07T16:59:10.757Z,66.68
2022-10-07T17:01:39.496Z,103.25
2022-10-07T17:04:09.565Z,66.05
2022-10-07T17:06:37.277Z,63.83
2022-10-07T17:09:04.885Z,76.68
2022-10-07T17:11:33.673Z,64.95
2022-10-07T17:14:01.900Z,74.72
2022-10-07T17:16:37.969Z,72.05
2022-10-07T17:19:06.552Z,67.60
2022-10-07T17:21:36.300Z,73.53
2022-10-07T17:24:04.447Z,61.08
2022-10-07T17:26:32.212Z,63.00
2022-10-07T17:29:02.205Z,66.22
2022-10-07T17:31:30.730Z,69.68
2022-10-07T17:33:58.723Z,68.97
2022-10-07T17:36:26.941Z,66.47
2022-10-07T17:38:54.628Z,62.47
2022-10-07T17:41:26.983Z,59.50
2022-10-07T17:43:56.515Z,64.05
2022-10-07T17:46:26.135Z,56.88
2022-10-07T17:48:57.752Z,66.88
2022-10-07T17:51:27.587Z,57.90
2022-10-07T17:53:56.580Z,60.25
2022-10-07T17:56:24.218Z,62.63
2022-10-07T17:58:51.836Z,56.95
2022-10-07T18:01:24.247Z,67.47
2022-10-07T18:03:53.490Z,59.03
2022-10-07T18:06:25.749Z,64.90
2022-10-07T18:08:53.887Z,56.42
2022-10-07T18:11:21.464Z,54.83
2022-10-07T18:14:08.162Z,53.25
2022-10-07T18:16:35.890Z,58.30
2022-10-07T18:19:03.711Z,53.05
2022-10-07T18:21:31.614Z,55.60
2022-10-07T18:23:59.318Z,61.67
2022-10-07T18:26:29.073Z,63.00
2022-10-07T18:28:57.660Z,59.10
2022-10-07T18:31:26.543Z,60.90
2022-10-07T18:33:54.200Z,53.00
2022-10-07T18:36:22.549Z,57.00
2022-10-07T18:38:50.228Z,52.15
2022-10-07T18:41:18.010Z,62.08
2022-10-07T18:43:46.328Z,56.92
2022-10-07T18:46:18.257Z,54.42
2022-10-07T18:48:48.176Z,59.30
2022-10-07T18:51:15.919Z,58.88
2022-10-07T18:53:44.645Z,59.00
2022-10-07T18:56:22.898Z,54.42
2022-10-07T18:58:51.626Z,60.47
2022-10-07T19:01:23.684Z,59.85
2022-10-07T19:03:55.765Z,52.83
2022-10-07T19:06:24.252Z,63.92
2022-10-07T19:08:59.101Z,61.65
2022-10-07T19:11:30.621Z,51.47
2022-10-07T19:13:59.337Z,63.65
2022-10-07T19:16:37.334Z,56.78
2022-10-07T19:19:12.112Z,61.10
2022-10-07T19:21:40.564Z,59.17
2022-10-07T19:24:08.131Z,50.92
2022-10-07T19:26:38.744Z,56.50
2022-10-07T19:29:11.141Z,57.03
2022-10-07T19:31:41.509Z,63.15
2022-10-07T19:34:13.761Z,54.95
2022-10-07T19:36:47.190Z,48.72
2022-10-07T19:39:16.188Z,53.05
2022-10-07T19:41:44.263Z,56.35
2022-10-07T19:44:13.285Z,55.38
2022-10-07T19:46:43.965Z,60.63
2022-10-07T19:51:42.058Z,59.13
2022-10-07T19:54:13.347Z,60.50
2022-10-07T19:56:41.893Z,49.75
2022-10-07T19:59:11.180Z,46.75
2022-10-07T20:01:43.579Z,55.55
2022-10-07T20:04:15.967Z,48.30
2022-10-07T20:06:44.001Z,39.17
2022-10-07T20:09:15.189Z,45.58
2022-10-07T20:11:53.405Z,55.25
2022-10-07T20:14:21.669Z,37.10
2022-10-07T20:16:49.287Z,46.05
2022-10-07T20:19:18.709Z,32.63
2022-10-07T20:21:48.239Z,38.65
2022-10-07T20:24:16.618Z,49.35
2022-10-07T20:26:45.044Z,67.93
2022-10-07T20:29:14.008Z,60.28
2022-10-07T20:31:41.934Z,53.58
2022-10-07T20:34:13.340Z,31.27
2022-10-07T20:39:38.350Z,28.50
2022-10-07T20:42:21.333Z,53.88
2022-10-07T20:44:49.395Z,78.32
2022-10-07T20:47:18.053Z,100.78
2022-10-07T20:49:45.945Z,66.15
2022-10-07T20:52:17.672Z,62.58
2022-10-07T20:54:46.148Z,58.63
2022-10-07T20:57:16.502Z,60.30
2022-10-07T20:59:44.183Z,44.70
2022-10-07T21:02:13.731Z,40.35
2022-10-07T21:04:41.534Z,50.40
2022-10-07T21:07:10.174Z,38.08
2022-10-07T21:12:13.899Z,36.83
2022-10-07T21:14:44.896Z,35.50
2022-10-07T21:17:18.007Z,34.17
2022-10-07T21:19:45.880Z,34.35
2022-10-07T21:22:13.520Z,33.17
2022-10-07T21:24:42.247Z,31.73
2022-10-07T21:27:10.017Z,32.10
2022-10-07T21:29:40.808Z,28.20
2022-10-07T21:32:10.227Z,30.55
2022-10-07T21:34:38.343Z,26.95
2022-10-07T21:37:05.999Z,31.35
2022-10-07T21:39:33.857Z,27.52
2022-10-07T21:42:02.264Z,30.92
2022-10-07T21:44:33.528Z,29.08
2022-10-07T21:47:01.311Z,25.92
2022-10-07T21:49:29.465Z,27.30
2022-10-07T21:51:57.092Z,31.10
2022-10-07T21:54:26.340Z,28.27
2022-10-07T21:56:54.287Z,27.23
2022-10-07T21:59:21.797Z,29.08
2022-10-07T22:01:49.804Z,31.35
2022-10-07T22:04:17.996Z,22.30
2022-10-07T22:07:04.421Z,28.52
2022-10-07T22:09:32.456Z,27.23
2022-10-07T22:12:02.611Z,26.63
2022-10-07T22:14:30.401Z,27.85
2022-10-07T22:17:00.119Z,25.58
2022-10-07T22:19:28.081Z,26.02
2022-10-07T22:21:57.231Z,23.05
2022-10-07T22:24:25.024Z,21.35
2022-10-07T22:26:52.677Z,26.13
2022-10-07T22:29:21.874Z,23.02
2022-10-07T22:31:49.500Z,21.33
2022-10-07T22:34:35.618Z,23.73
2022-10-07T22:37:04.494Z,21.00
2022-10-07T22:39:32.084Z,26.73
2022-10-07T22:42:01.200Z,29.48
2022-10-07T22:44:29.058Z,27.15
2022-10-07T22:46:56.938Z,35.08
2022-10-07T22:49:29.605Z,24.95
2022-10-07T22:51:59.897Z,23.50
2022-10-07T22:54:27.832Z,21.65
2022-10-07T22:56:58.129Z,25.67
2022-10-07T22:59:25.915Z,27.30
2022-10-07T23:01:53.606Z,22.77
2022-10-07T23:04:21.737Z,26.05
2022-10-07T23:06:49.935Z,26.00
2022-10-07T23:09:17.628Z,20.52
2022-10-07T23:11:45.999Z,24.55
2022-10-07T23:14:15.228Z,27.60
2022-10-07T23:16:44.445Z,21.17
2022-10-07T23:19:12.055Z,25.73
2022-10-07T23:21:39.743Z,21.48
2022-10-07T23:24:10.197Z,28.92
2022-10-07T23:26:38.543Z,21.38
2022-10-07T23:29:07.698Z,21.40
2022-10-07T23:31:38.359Z,23.08
2022-10-07T23:34:06.646Z,24.10
2022-10-07T23:36:35.195Z,22.05
2022-10-07T23:39:03.461Z,24.40
2022-10-07T23:41:31.544Z,22.52
2022-10-07T23:44:00.837Z,21.38
2022-10-07T23:46:28.936Z,26.35
2022-10-07T23:48:56.577Z,26.27
2022-10-07T23:51:25.332Z,22.13
2022-10-07T23:53:53.010Z,29.35
2022-10-07T23:56:20.964Z,23.80
2022-10-07T23:58:48.679Z,22.75
